Time;durP1;ratioP1;P1;durP2;ratioP2;P2;SDS_P1;SDS_P2;PMS_P1;PMS_P2;Temp;Humidity;BMP_temperature;BMP_pressure;BME280_temperature;BME280_humidity;BME280_pressure;Samples;Min_cycle;Max_cycle;Signal;HPM_P1;HPM_P2
2022/09/01 00:01:19;;;;;;;7.35;3.10;;;13.60;99.90;;;;;;5048178;28;20095;-72
2022/09/01 00:03:48;;;;;;;4.88;2.33;;;13.50;99.90;;;;;;5055749;28;20076;-73
2022/09/01 00:06:21;;;;;;;5.10;2.08;;;13.50;99.90;;;;;;5020371;28;20060;-72
2022/09/01 00:08:48;;;;;;;4.22;2.55;;;13.60;99.90;;;;;;5055449;28;20053;-72
2022/09/01 00:11:14;;;;;;;4.35;2.40;;;13.50;99.90;;;;;;5054003;28;20083;-72
2022/09/01 00:13:40;;;;;;;2.85;1.83;;;13.50;99.90;;;;;;5038304;28;20048;-72
2022/09/01 00:16:05;;;;;;;4.25;2.10;;;13.40;99.90;;;;;;5051449;28;20076;-73
2022/09/01 00:18:31;;;;;;;4.25;1.90;;;13.40;99.90;;;;;;5035317;28;20041;-72
2022/09/01 00:20:58;;;;;;;4.45;2.00;;;13.40;99.90;;;;;;5035317;28;20038;-73
2022/09/01 00:23:26;;;;;;;5.20;1.70;;;13.30;99.90;;;;;;5035699;28;20052;-72
2022/09/01 00:25:52;;;;;;;4.63;1.83;;;13.30;99.90;;;;;;5035155;28;20049;-73
2022/09/01 00:28:17;;;;;;;3.92;1.40;;;13.30;99.90;;;;;;5035392;28;20408;-73
2022/09/01 00:30:43;;;;;;;3.97;1.80;;;13.30;99.90;;;;;;5037099;28;20140;-73
2022/09/01 00:33:09;;;;;;;3.67;1.75;;;13.30;99.90;;;;;;5053585;28;20055;-73
2022/09/01 00:35:35;;;;;;;3.25;1.45;;;13.30;99.90;;;;;;5054842;28;20041;-72
2022/09/01 00:38:00;;;;;;;2.60;1.40;;;13.30;99.90;;;;;;5055861;28;20103;-72
2022/09/01 00:40:26;;;;;;;2.90;1.45;;;13.30;99.90;;;;;;5054873;28;20191;-73
2022/09/01 00:42:52;;;;;;;3.85;1.88;;;13.20;99.90;;;;;;5037545;28;20049;-72
2022/09/01 00:45:20;;;;;;;3.38;1.30;;;13.20;99.90;;;;;;5055218;28;20402;-73
2022/09/01 00:47:46;;;;;;;3.20;1.38;;;13.20;99.90;;;;;;5046166;28;20481;-72
2022/09/01 00:50:15;;;;;;;2.58;1.35;;;13.10;99.90;;;;;;5034827;28;20441;-72
2022/09/01 00:52:46;;;;;;;2.15;1.17;;;13.20;99.90;;;;;;5034878;28;20042;-72
2022/09/01 00:55:16;;;;;;;3.08;1.30;;;13.20;99.90;;;;;;5034676;28;20041;-72
2022/09/01 00:57:42;;;;;;;1.67;1.10;;;13.20;99.90;;;;;;5034842;28;20056;-72
2022/09/01 01:00:13;;;;;;;2.13;1.30;;;13.20;99.90;;;;;;5034899;28;20046;-72
2022/09/01 01:02:40;;;;;;;6.22;1.50;;;13.20;99.90;;;;;;5042365;28;20122;-72
2022/09/01 01:05:07;;;;;;;5.40;1.40;;;13.20;99.90;;;;;;5034535;28;20049;-72
2022/09/01 01:07:37;;;;;;;2.15;1.30;;;13.20;99.90;;;;;;5034906;28;20045;-73
2022/09/01 01:10:07;;;;;;;3.45;1.30;;;13.20;99.90;;;;;;5018236;28;20056;-73
2022/09/01 01:12:34;;;;;;;2.38;1.10;;;13.20;99.90;;;;;;5034495;28;20138;-72
2022/09/01 01:15:01;;;;;;;3.10;1.38;;;13.10;99.90;;;;;;5034663;28;20054;-73
2022/09/01 01:17:27;;;;;;;3.13;1.20;;;13.00;99.90;;;;;;5034703;28;20084;-73
2022/09/01 01:23:18;;;;;;;3.03;1.40;;;13.00;99.90;;;;;;5036799;28;20045;-73
2022/09/01 01:25:43;;;;;;;;;;;13.00;99.90;;;;;;5039266;28;20060;-73
2022/09/01 01:28:19;;;;;;;3.10;1.38;;;13.00;99.90;;;;;;5039190;28;19920;-72
2022/09/01 01:30:58;;;;;;;2.20;1.20;;;13.00;99.90;;;;;;5038218;28;20400;-72
2022/09/01 01:33:40;;;;;;;1.55;1.10;;;12.90;99.90;;;;;;5038448;28;20051;-72
2022/09/01 01:36:09;;;;;;;2.97;1.33;;;12.90;99.90;;;;;;5038584;28;20049;-72
2022/09/01 01:38:35;;;;;;;1.85;1.10;;;12.90;99.90;;;;;;5037995;28;20065;-72
2022/09/01 01:41:02;;;;;;;1.52;1.10;;;12.80;99.90;;;;;;5037750;28;20049;-73
2022/09/01 01:43:28;;;;;;;2.58;1.20;;;12.80;99.90;;;;;;5037778;28;20446;-72
2022/09/01 01:46:01;;;;;;;2.53;1.15;;;12.80;99.90;;;;;;5037488;28;20096;-73
2022/09/01 01:48:28;;;;;;;2.83;1.20;;;12.70;99.90;;;;;;5038287;28;20084;-73
2022/09/01 01:50:58;;;;;;;5.97;1.30;;;12.60;99.90;;;;;;5037674;28;20091;-72
2022/09/01 01:53:24;;;;;;;3.58;1.33;;;12.60;99.90;;;;;;5037830;28;20092;-73
2022/09/01 01:55:49;;;;;;;2.55;1.20;;;12.50;99.90;;;;;;5037814;28;20068;-73
2022/09/01 01:58:18;;;;;;;2.47;1.30;;;12.50;99.90;;;;;;5037843;28;20417;-72
2022/09/01 02:00:46;;;;;;;2.17;1.20;;;12.50;99.90;;;;;;5037984;28;20046;-72
2022/09/01 02:03:17;;;;;;;3.42;1.63;;;12.60;99.90;;;;;;5038069;28;20433;-72
2022/09/01 02:05:44;;;;;;;1.52;1.00;;;12.60;99.90;;;;;;5035805;28;20127;-73
2022/09/01 02:08:11;;;;;;;2.63;1.25;;;12.60;99.90;;;;;;5037402;28;20515;-72
2022/09/01 02:10:43;;;;;;;3.00;1.40;;;12.60;99.90;;;;;;5041020;28;20068;-72
2022/09/01 02:13:15;;;;;;;2.58;1.30;;;12.60;99.90;;;;;;5056994;28;20048;-72
2022/09/01 02:15:44;;;;;;;2.42;1.30;;;12.60;99.90;;;;;;5057530;28;20037;-73
2022/09/01 02:18:34;;;;;;;2.92;1.10;;;12.60;99.90;;;;;;5057648;28;20044;-73
2022/09/01 02:21:07;;;;;;;3.97;1.83;;;12.60;99.90;;;;;;5058232;28;20349;-72
2022/09/01 02:23:32;;;;;;;2.60;1.30;;;12.60;99.90;;;;;;5040483;28;20057;-73
2022/09/01 02:26:01;;;;;;;2.38;1.10;;;12.70;99.90;;;;;;5058039;28;20049;-73
2022/09/01 02:28:30;;;;;;;3.55;1.52;;;12.60;99.90;;;;;;5056887;28;20044;-72
2022/09/01 02:30:58;;;;;;;2.90;1.40;;;12.60;99.90;;;;;;5057084;28;20128;-72
2022/09/01 02:33:26;;;;;;;3.08;1.40;;;12.60;99.90;;;;;;5056781;28;20399;-72
2022/09/01 02:35:55;;;;;;;2.05;1.10;;;12.50;99.90;;;;;;5056850;28;20492;-72
2022/09/01 02:38:24;;;;;;;2.45;1.25;;;12.50;99.90;;;;;;5057373;28;20119;-72
2022/09/01 02:40:52;;;;;;;2.88;1.20;;;12.50;99.90;;;;;;5057228;28;20048;-72
2022/09/01 02:43:19;;;;;;;2.17;1.20;;;12.60;99.90;;;;;;5056076;28;20064;-72
2022/09/01 02:45:54;;;;;;;3.05;1.33;;;12.60;99.90;;;;;;5056175;28;20168;-72
2022/09/01 02:48:25;;;;;;;3.60;1.52;;;12.60;99.90;;;;;;5056839;28;20055;-73
2022/09/01 02:50:51;;;;;;;2.45;1.40;;;12.70;99.90;;;;;;5056914;28;20045;-72
2022/09/01 02:53:17;;;;;;;3.92;1.42;;;12.70;99.90;;;;;;5056948;28;20094;-72
2022/09/01 02:55:42;;;;;;;3.20;1.30;;;12.80;99.90;;;;;;5056766;28;20060;-73
2022/09/01 02:58:15;;;;;;;2.83;1.30;;;12.80;99.90;;;;;;5056773;28;20052;-72
2022/09/01 03:00:44;;;;;;;2.30;1.25;;;12.80;99.90;;;;;;5055945;28;20044;-72
2022/09/01 03:03:16;;;;;;;1.95;1.40;;;12.80;99.90;;;;;;5056598;28;20171;-72
2022/09/01 03:05:42;;;;;;;4.30;1.73;;;12.90;99.90;;;;;;5056906;28;20365;-73
2022/09/01 03:08:13;;;;;;;2.47;1.33;;;12.90;99.90;;;;;;5022656;28;20335;-72
2022/09/01 03:10:42;;;;;;;2.55;1.50;;;12.90;99.90;;;;;;5056121;28;20556;-72
2022/09/01 03:13:19;;;;;;;6.72;1.83;;;12.90;99.90;;;;;;5056386;28;20111;-73
2022/09/01 03:15:45;;;;;;;3.45;1.50;;;12.90;99.90;;;;;;5050553;28;20044;-73
2022/09/01 03:18:12;;;;;;;4.20;1.75;;;13.00;99.90;;;;;;5036645;28;20041;-72
2022/09/01 03:20:42;;;;;;;3.13;1.65;;;13.00;99.90;;;;;;5036681;28;20034;-72
2022/09/01 03:23:09;;;;;;;2.10;1.30;;;13.00;99.90;;;;;;5018672;28;20124;-72
2022/09/01 03:25:36;;;;;;;6.28;1.70;;;13.00;99.90;;;;;;5036247;28;20053;-72
2022/09/01 03:28:03;;;;;;;3.00;1.35;;;13.00;99.90;;;;;;5036838;28;20049;-73
2022/09/01 03:30:32;;;;;;;4.18;1.70;;;12.90;99.90;;;;;;5041351;28;20045;-72
2022/09/01 03:33:00;;;;;;;2.10;1.35;;;12.90;99.90;;;;;;5056297;28;20041;-72
2022/09/01 03:35:27;;;;;;;4.35;1.60;;;12.90;99.90;;;;;;5056013;28;20103;-72
2022/09/01 03:37:57;;;;;;;2.67;1.55;;;13.00;99.90;;;;;;5055861;28;20404;-72
2022/09/01 03:40:26;;;;;;;2.35;1.48;;;12.90;99.90;;;;;;5039089;28;20048;-73
2022/09/01 03:42:53;;;;;;;4.18;1.70;;;12.90;99.90;;;;;;5055839;28;20045;-73
2022/09/01 03:45:19;;;;;;;2.40;1.40;;;12.80;99.90;;;;;;5049175;28;20461;-73
2022/09/01 03:47:45;;;;;;;3.20;1.60;;;12.80;99.90;;;;;;5035679;28;20049;-73
2022/09/01 03:50:19;;;;;;;3.90;1.83;;;12.70;99.90;;;;;;5035127;28;20488;-73
2022/09/01 03:52:48;;;;;;;2.38;1.70;;;12.60;99.90;;;;;;5036183;28;20128;-73
2022/09/01 03:55:22;;;;;;;2.63;1.48;;;12.70;99.90;;;;;;5035637;28;20052;-73
2022/09/01 03:57:54;;;;;;;3.63;1.42;;;12.60;99.90;;;;;;5036617;28;20045;-71
2022/09/01 04:00:22;;;;;;;2.63;1.40;;;12.60;99.90;;;;;;5037488;28;20361;-73
2022/09/01 04:02:51;;;;;;;2.08;1.50;;;12.60;99.90;;;;;;5039499;28;20051;-70
2022/09/01 04:05:20;;;;;;;4.07;1.50;;;12.50;99.90;;;;;;5052550;28;20491;-72
2022/09/01 04:07:46;;;;;;;3.15;1.48;;;12.50;99.90;;;;;;5047111;28;20080;-72
2022/09/01 04:10:12;;;;;;;3.10;1.42;;;12.40;99.90;;;;;;5035385;28;20042;-71
2022/09/01 04:12:38;;;;;;;3.38;1.63;;;12.30;99.90;;;;;;5035438;28;20050;-71
2022/09/01 04:15:04;;;;;;;3.03;1.60;;;12.30;99.90;;;;;;5035350;28;20116;-70
2022/09/01 04:20:18;;;;;;;2.28;1.50;;;12.10;99.90;;;;;;5034994;28;20136;-72
2022/09/01 04:22:49;;;;;;;2.60;1.60;;;12.10;99.90;;;;;;5035972;28;20350;-71
2022/09/01 04:25:15;;;;;;;2.70;1.77;;;12.10;99.90;;;;;;5035401;28;20389;-72
2022/09/01 04:27:41;;;;;;;4.53;1.65;;;12.00;99.90;;;;;;5035140;28;20045;-72
2022/09/01 04:30:10;;;;;;;2.97;1.52;;;12.00;99.90;;;;;;5034639;28;20115;-73
2022/09/01 04:32:37;;;;;;;7.55;1.70;;;12.00;99.90;;;;;;5035082;28;20049;-72
2022/09/01 04:35:03;;;;;;;8.35;1.90;;;12.00;99.90;;;;;;5035323;28;20048;-72
2022/09/01 04:37:30;;;;;;;4.05;2.08;;;12.00;99.90;;;;;;5035074;28;20052;-72
2022/09/01 04:39:56;;;;;;;3.40;1.60;;;12.10;99.90;;;;;;5035242;28;20060;-72
2022/09/01 04:42:25;;;;;;;5.65;1.70;;;11.90;99.90;;;;;;5000072;28;20550;-72
2022/09/01 04:44:53;;;;;;;3.72;1.60;;;11.90;99.90;;;;;;5034524;28;20140;-72
2022/09/01 04:47:28;;;;;;;2.55;1.55;;;12.00;99.90;;;;;;5034945;28;20400;-73
2022/09/01 04:49:59;;;;;;;2.80;1.70;;;11.80;99.90;;;;;;5033994;28;20052;-72
2022/09/01 04:52:28;;;;;;;4.72;1.90;;;11.80;99.90;;;;;;5034983;28;20041;-72
2022/09/01 04:54:53;;;;;;;2.85;1.80;;;11.70;99.90;;;;;;5034665;28;20139;-70
2022/09/01 04:57:20;;;;;;;3.75;1.70;;;11.70;99.90;;;;;;5038718;28;20414;-70
2022/09/01 04:59:46;;;;;;;3.30;1.75;;;11.70;99.90;;;;;;5041758;28;20092;-70
2022/09/01 05:02:11;;;;;;;3.80;2.05;;;11.70;99.90;;;;;;5041252;28;20053;-70
2022/09/01 05:04:43;;;;;;;3.40;2.20;;;11.70;99.90;;;;;;5041065;28;20037;-70
2022/09/01 05:07:09;;;;;;;5.30;2.00;;;11.80;99.90;;;;;;5040701;28;20501;-70
2022/09/01 05:09:36;;;;;;;4.32;2.00;;;11.70;99.90;;;;;;5041374;28;20045;-70
2022/09/01 05:12:15;;;;;;;5.00;1.98;;;11.80;99.90;;;;;;5057309;28;20061;-70
2022/09/01 05:14:45;;;;;;;7.22;2.22;;;11.80;99.90;;;;;;5061595;28;20049;-69
2022/09/01 05:17:12;;;;;;;4.15;1.73;;;11.90;99.90;;;;;;5060701;28;20124;-70
2022/09/01 05:19:46;;;;;;;3.30;2.10;;;11.90;99.90;;;;;;5060739;28;20119;-70
2022/09/01 05:22:13;;;;;;;;;;;11.90;99.90;;;;;;5061686;28;20060;-70
2022/09/01 05:24:39;;;;;;;4.22;2.55;;;11.90;99.90;;;;;;5061593;28;19930;-70
2022/09/01 05:27:05;;;;;;;5.82;2.35;;;12.00;99.90;;;;;;5059642;28;20048;-71
2022/09/01 05:29:31;;;;;;;4.53;2.30;;;12.00;99.90;;;;;;5060707;28;20491;-72
2022/09/01 05:31:57;;;;;;;3.22;2.17;;;12.00;99.90;;;;;;5060914;28;20041;-72
2022/09/01 05:34:28;;;;;;;3.92;2.20;;;12.00;99.90;;;;;;5060460;28;20473;-73
2022/09/01 05:36:58;;;;;;;5.63;2.60;;;12.00;99.90;;;;;;5060830;28;20045;-72
2022/09/01 05:39:24;;;;;;;4.75;2.05;;;12.10;99.90;;;;;;5060938;28;20099;-72
2022/09/01 05:41:52;;;;;;;4.40;2.10;;;12.10;99.90;;;;;;5060963;28;20071;-73
2022/09/01 05:44:21;;;;;;;4.78;2.30;;;12.20;99.90;;;;;;5060889;28;20441;-73
2022/09/01 05:46:48;;;;;;;4.97;2.50;;;12.20;99.90;;;;;;5061176;28;20087;-72
2022/09/01 05:49:15;;;;;;;5.22;2.13;;;12.30;99.90;;;;;;5042906;28;20056;-73
2022/09/01 05:51:50;;;;;;;3.88;2.17;;;12.40;99.90;;;;;;5060767;28;20049;-73
2022/09/01 05:54:20;;;;;;;8.27;2.28;;;12.50;99.90;;;;;;5061338;28;20056;-73
2022/09/01 05:56:46;;;;;;;7.32;2.30;;;12.60;99.90;;;;;;5060958;28;20053;-73
2022/09/01 05:59:12;;;;;;;3.38;2.20;;;12.70;99.90;;;;;;5061026;28;20491;-72
2022/09/01 06:01:39;;;;;;;6.55;2.80;;;12.80;99.90;;;;;;5060729;28;20107;-72
2022/09/01 06:04:07;;;;;;;5.75;2.17;;;12.90;99.90;;;;;;5060204;28;20084;-73
2022/09/01 06:06:45;;;;;;;5.75;2.58;;;13.00;99.90;;;;;;5060757;28;20048;-72
2022/09/01 06:09:12;;;;;;;5.75;2.50;;;13.10;99.90;;;;;;5057031;28;20046;-72
2022/09/01 06:11:39;;;;;;;4.18;2.35;;;13.20;99.90;;;;;;5057066;28;20049;-72
2022/09/01 06:14:07;;;;;;;4.05;2.50;;;13.30;99.90;;;;;;5058273;28;20124;-73
2022/09/01 06:16:34;;;;;;;3.83;2.50;;;13.30;99.90;;;;;;5040368;28;20053;-73
2022/09/01 06:19:00;;;;;;;4.40;2.30;;;13.40;99.90;;;;;;5053798;28;20052;-72
2022/09/01 06:21:27;;;;;;;4.75;2.47;;;13.50;99.90;;;;;;5037788;28;20045;-73
2022/09/01 06:23:55;;;;;;;6.13;2.92;;;13.60;99.90;;;;;;5037835;28;20056;-73
2022/09/01 06:26:27;;;;;;;6.97;2.63;;;13.80;99.90;;;;;;5037107;28;20041;-72
2022/09/01 06:29:09;;;;;;;4.38;2.50;;;13.90;99.90;;;;;;5037671;28;20373;-73
2022/09/01 06:31:38;;;;;;;3.83;2.33;;;14.40;99.90;;;;;;5037197;28;20045;-72
2022/09/01 06:34:05;;;;;;;3.85;2.25;;;16.00;99.90;;;;;;5052958;28;20054;-72
2022/09/01 06:36:35;;;;;;;2.72;1.60;;;17.80;99.90;;;;;;5037087;28;20045;-73
2022/09/01 06:39:04;;;;;;;3.65;1.98;;;19.20;99.90;;;;;;5037473;28;20064;-73
2022/09/01 06:41:30;;;;;;;5.30;2.00;;;20.50;99.90;;;;;;5037051;28;20453;-73
2022/09/01 06:43:56;;;;;;;4.20;1.83;;;20.60;99.90;;;;;;5037016;28;20147;-72
2022/09/01 06:46:22;;;;;;;3.90;2.03;;;19.90;99.90;;;;;;5020268;28;20353;-73
2022/09/01 06:48:49;;;;;;;5.75;2.20;;;19.20;99.90;;;;;;5042107;28;20049;-73
2022/09/01 06:51:19;;;;;;;4.18;2.05;;;18.70;99.90;;;;;;5039004;28;20465;-72
2022/09/01 06:53:49;;;;;;;4.32;1.90;;;18.30;99.90;;;;;;5056814;28;20052;-73
2022/09/01 06:56:17;;;;;;;5.30;2.15;;;18.00;99.90;;;;;;5056699;28;20055;-73
2022/09/01 06:58:47;;;;;;;3.55;1.70;;;17.60;99.90;;;;;;5057053;28;20110;-72
2022/09/01 07:01:18;;;;;;;3.63;1.77;;;17.50;99.90;;;;;;5056745;28;20055;-73
2022/09/01 07:03:46;;;;;;;5.07;2.40;;;17.00;99.90;;;;;;5056527;28;20071;-73
2022/09/01 07:06:13;;;;;;;5.07;2.22;;;17.10;99.90;;;;;;5053601;28;20045;-72
2022/09/01 07:08:39;;;;;;;5.25;2.35;;;16.90;99.90;;;;;;5055741;28;20044;-72
2022/09/01 07:11:08;;;;;;;5.22;2.55;;;16.90;99.90;;;;;;5052526;28;20057;-73
2022/09/01 07:13:34;;;;;;;5.88;2.42;;;16.90;99.90;;;;;;5036534;28;20049;-72
2022/09/01 07:16:03;;;;;;;6.28;2.53;;;16.90;99.90;;;;;;5036757;28;20045;-72
2022/09/01 07:18:30;;;;;;;7.72;2.20;;;17.00;99.90;;;;;;5036458;28;20064;-72
2022/09/01 07:20:55;;;;;;;5.68;2.15;;;17.10;99.90;;;;;;5035908;28;20120;-72
2022/09/01 07:23:22;;;;;;;4.50;2.22;;;17.30;99.90;;;;;;5036678;28;20473;-72
2022/09/01 07:25:54;;;;;;;4.30;2.20;;;17.30;99.90;;;;;;5039169;28;20045;-72
2022/09/01 07:28:22;;;;;;;3.40;1.90;;;17.20;99.90;;;;;;5056191;28;20053;-72
2022/09/01 07:30:51;;;;;;;8.95;2.10;;;17.30;99.90;;;;;;5056026;28;20049;-72
2022/09/01 07:33:22;;;;;;;7.85;2.75;;;17.30;99.90;;;;;;5056203;28;20333;-73
2022/09/01 07:35:52;;;;;;;7.30;2.28;;;17.30;99.90;;;;;;5056390;28;20369;-72
2022/09/01 07:38:18;;;;;;;4.25;2.28;;;17.20;99.90;;;;;;5056162;28;20045;-72
2022/09/01 07:40:44;;;;;;;4.05;1.90;;;17.20;99.90;;;;;;5051045;28;20087;-72
2022/09/01 07:43:23;;;;;;;2.72;1.65;;;17.20;99.90;;;;;;5036100;28;20041;-72
2022/09/01 07:45:54;;;;;;;3.53;1.90;;;17.30;99.90;;;;;;5035755;28;20046;-72
2022/09/01 07:48:22;;;;;;;7.22;1.70;;;17.30;99.90;;;;;;5035772;28;20180;-73
2022/09/01 07:50:51;;;;;;;4.93;2.00;;;17.40;99.90;;;;;;5035568;28;20096;-72
2022/09/01 07:53:21;;;;;;;4.13;2.03;;;17.40;99.90;;;;;;5035676;28;20468;-73
2022/09/01 07:55:49;;;;;;;4.40;1.90;;;17.60;99.90;;;;;;5035547;28;20060;-72
2022/09/01 07:58:16;;;;;;;4.07;1.55;;;17.60;99.90;;;;;;5036055;28;20323;-73
2022/09/01 08:00:45;;;;;;;3.60;1.63;;;17.60;99.90;;;;;;5038343;28;20037;-73
2022/09/01 08:03:11;;;;;;;5.35;1.65;;;17.70;99.90;;;;;;5053031;28;20364;-73
2022/09/01 08:05:37;;;;;;;7.00;2.00;;;17.80;99.90;;;;;;5055899;28;20072;-72
2022/09/01 08:08:03;;;;;;;5.35;1.75;;;17.80;99.90;;;;;;5055072;28;20503;-73
2022/09/01 08:10:29;;;;;;;5.47;1.83;;;17.90;99.90;;;;;;5043022;28;20461;-73
2022/09/01 08:12:55;;;;;;;4.10;1.67;;;17.90;99.90;;;;;;5035407;28;20053;-72
2022/09/01 08:15:21;;;;;;;3.15;1.50;;;17.90;99.90;;;;;;5035738;28;20041;-72
2022/09/01 08:17:47;;;;;;;4.78;1.67;;;18.00;99.90;;;;;;5035576;28;20048;-72
2022/09/01 08:20:13;;;;;;;9.38;1.90;;;18.00;99.90;;;;;;5035243;28;20045;-72
2022/09/01 08:22:39;;;;;;;4.57;1.80;;;18.10;99.90;;;;;;5035619;28;20060;-73
2022/09/01 08:25:06;;;;;;;4.82;1.73;;;18.20;99.90;;;;;;5034717;28;20466;-72
2022/09/01 08:27:35;;;;;;;12.30;2.00;;;18.20;99.90;;;;;;5035034;28;20366;-72
2022/09/01 08:30:03;;;;;;;4.15;1.50;;;18.30;99.90;;;;;;5034959;28;20075;-73
2022/09/01 08:32:29;;;;;;;5.15;2.17;;;18.30;99.90;;;;;;5034320;28;20045;-73
2022/09/01 08:34:55;;;;;;;8.75;1.65;;;18.40;99.90;;;;;;5035183;28;20132;-73
2022/09/01 08:37:22;;;;;;;4.95;1.77;;;19.00;99.90;;;;;;5035471;28;20103;-73
2022/09/01 08:39:48;;;;;;;3.17;1.35;;;20.10;99.90;;;;;;5035128;28;20056;-73
2022/09/01 08:42:45;;;;;;;12.27;2.00;;;21.20;99.90;;;;;;5034429;28;20045;-73
2022/09/01 08:45:43;;;;;;;5.05;1.58;;;22.00;99.90;;;;;;5034903;28;20426;-73
2022/09/01 08:48:41;;;;;;;3.72;1.65;;;22.60;97.70;;;;;;5035025;28;20056;-73
2022/09/01 08:51:29;;;;;;;4.32;1.67;;;22.90;98.60;;;;;;5031038;28;20462;-73
2022/09/01 08:54:13;;;;;;;4.97;1.88;;;23.00;97.90;;;;;;5034916;28;20049;-73
2022/09/01 08:56:39;;;;;;;4.65;1.63;;;22.90;98.40;;;;;;5034165;28;20046;-72
2022/09/01 08:59:08;;;;;;;4.47;1.60;;;22.50;97.90;;;;;;5034820;28;20046;-73
2022/09/01 09:01:56;;;;;;;4.47;1.45;;;22.40;98.60;;;;;;5035091;28;20129;-73
2022/09/01 09:04:28;;;;;;;3.42;1.55;;;22.10;97.50;;;;;;5035242;28;20057;-73
2022/09/01 09:07:39;;;;;;;8.05;1.95;;;21.80;98.50;;;;;;5034836;28;20046;-73
2022/09/01 09:10:17;;;;;;;7.60;1.10;;;21.60;97.70;;;;;;5026593;28;20053;-73
2022/09/01 09:13:16;;;;;;;4.80;1.58;;;21.50;97.70;;;;;;5034598;28;20393;-73
2022/09/01 09:15:57;;;;;;;2.10;1.23;;;21.50;98.20;;;;;;5034597;28;20171;-73
2022/09/01 09:18:48;;;;;;;2.92;1.60;;;21.50;97.60;;;;;;5034537;28;20050;-73
2022/09/01 09:21:34;;;;;;;3.70;1.40;;;21.80;97.80;;;;;;5034433;28;20150;-73
2022/09/01 09:24:47;;;;;;;3.58;1.20;;;22.20;95.80;;;;;;5034474;28;20050;-73
2022/09/01 09:27:26;;;;;;;8.73;1.33;;;22.50;95.80;;;;;;5017333;28;20123;-72
2022/09/01 09:29:54;;;;;;;2.85;1.13;;;23.20;94.70;;;;;;5033887;28;20049;-73
2022/09/01 09:32:22;;;;;;;2.33;1.02;;;23.50;94.50;;;;;;5034410;28;20467;-73
2022/09/01 09:34:49;;;;;;;2.72;1.02;;;23.90;94.00;;;;;;5034380;28;20045;-72
2022/09/01 09:37:26;;;;;;;3.95;1.10;;;24.30;94.10;;;;;;5034920;28;20055;-73
2022/09/01 09:40:15;;;;;;;3.22;0.95;;;24.30;93.40;;;;;;5035041;28;20041;-72
2022/09/01 09:42:54;;;;;;;3.08;0.90;;;23.70;94.00;;;;;;5015543;28;20056;-73
2022/09/01 09:45:22;;;;;;;4.20;0.90;;;23.10;93.60;;;;;;5018286;28;20037;-72
2022/09/01 09:47:48;;;;;;;3.25;1.00;;;22.50;93.90;;;;;;5018552;28;20422;-73
2022/09/01 09:50:28;;;;;;;1.58;0.77;;;22.30;93.50;;;;;;5018076;28;20078;-73
2022/09/01 09:53:27;;;;;;;3.78;1.00;;;22.10;94.50;;;;;;5018266;28;20085;-73
2022/09/01 09:55:55;;;;;;;3.95;1.30;;;22.20;94.90;;;;;;5026092;28;20045;-72
2022/09/01 09:58:26;;;;;;;2.72;1.00;;;22.20;94.50;;;;;;5037497;28;20489;-73
2022/09/01 10:01:14;;;;;;;2.78;0.73;;;22.10;94.80;;;;;;5037333;28;20076;-73
2022/09/01 10:03:58;;;;;;;3.28;0.80;;;22.00;93.80;;;;;;5037736;28;20044;-72
2022/09/01 10:06:44;;;;;;;1.30;0.70;;;22.00;93.60;;;;;;5037771;28;20045;-72
2022/09/01 10:09:22;;;;;;;2.70;0.88;;;22.00;92.90;;;;;;5038004;28;20079;-72
2022/09/01 10:11:54;;;;;;;1.70;0.75;;;21.90;93.50;;;;;;5039003;28;20060;-73
2022/09/01 10:14:24;;;;;;;2.25;0.80;;;22.10;93.80;;;;;;5037941;28;20195;-73
2022/09/01 10:16:56;;;;;;;1.30;0.60;;;22.30;94.00;;;;;;5037739;28;20374;-73
2022/09/01 10:19:23;;;;;;;3.03;1.02;;;22.60;93.70;;;;;;5037583;28;20041;-73
2022/09/01 10:21:48;;;;;;;1.17;0.77;;;22.70;93.20;;;;;;5036588;28;20060;-73
2022/09/01 10:24:30;;;;;;;2.83;0.90;;;22.90;93.30;;;;;;5037605;28;20369;-73
2022/09/01 10:26:59;;;;;;;2.40;1.23;;;23.10;92.90;;;;;;5040401;28;20040;-72
2022/09/01 10:29:37;;;;;;;1.33;0.93;;;23.00;91.90;;;;;;5043324;28;20049;-72
2022/09/01 10:32:09;;;;;;;1.17;0.63;;;23.00;91.10;;;;;;5037381;28;20106;-73
2022/09/01 10:34:37;;;;;;;2.53;1.00;;;22.90;91.80;;;;;;5037286;28;20041;-73
2022/09/01 10:37:05;;;;;;;1.73;0.80;;;22.70;92.00;;;;;;5037163;28;20052;-72
2022/09/01 10:39:31;;;;;;;2.17;0.80;;;22.70;91.40;;;;;;5037300;28;20119;-73
2022/09/01 10:42:07;;;;;;;2.75;0.70;;;22.70;92.50;;;;;;5003064;28;20046;-73
2022/09/01 10:44:54;;;;;;;1.42;0.70;;;22.90;92.00;;;;;;5054028;28;20080;-72
2022/09/01 10:47:31;;;;;;;1.30;0.70;;;23.00;90.60;;;;;;5039075;28;20454;-73
2022/09/01 10:50:00;;;;;;;1.58;0.75;;;23.00;90.30;;;;;;5057239;28;20091;-73
2022/09/01 10:52:41;;;;;;;2.20;0.90;;;22.90;89.90;;;;;;5057399;28;20124;-73
2022/09/01 10:55:16;;;;;;;2.28;0.73;;;23.00;89.30;;;;;;5056328;28;20154;-72
2022/09/01 10:58:15;;;;;;;2.30;0.95;;;22.90;90.00;;;;;;5034877;28;20041;-73
2022/09/01 11:00:40;;;;;;;2.35;0.90;;;22.80;89.20;;;;;;5036726;28;20103;-73
2022/09/01 11:03:36;;;;;;;3.72;0.60;;;22.80;90.60;;;;;;5037045;28;20525;-72
2022/09/01 11:06:04;;;;;;;2.75;0.77;;;22.60;90.50;;;;;;5036787;28;20057;-73
2022/09/01 11:08:30;;;;;;;2.92;0.80;;;22.50;90.00;;;;;;5019697;28;20057;-73
2022/09/01 11:11:01;;;;;;;4.13;0.90;;;22.40;90.70;;;;;;5036136;28;20057;-72
2022/09/01 11:13:45;;;;;;;3.70;1.20;;;22.40;90.00;;;;;;5035998;28;20119;-73
2022/09/01 11:16:31;;;;;;;2.95;1.00;;;22.40;90.20;;;;;;5036595;28;20041;-72
2022/09/01 11:19:21;;;;;;;1.58;0.80;;;22.40;89.50;;;;;;5036221;28;20120;-72
2022/09/01 11:22:01;;;;;;;2.85;1.02;;;22.50;90.70;;;;;;5036369;28;20077;-73
2022/09/01 11:24:39;;;;;;;1.92;0.90;;;22.70;90.50;;;;;;5036382;28;20045;-72
2022/09/01 11:27:07;;;;;;;2.10;0.70;;;22.90;89.10;;;;;;5036115;28;20048;-72
2022/09/01 11:29:51;;;;;;;1.50;0.77;;;23.20;88.80;;;;;;5001307;28;20112;-73
2022/09/01 11:32:18;;;;;;;1.17;0.68;;;23.40;87.60;;;;;;5036430;28;20042;-72
2022/09/01 11:34:47;;;;;;;3.58;0.75;;;23.20;85.70;;;;;;5036365;28;20046;-73
2022/09/01 11:37:15;;;;;;;3.42;0.90;;;23.20;88.20;;;;;;5035947;28;20124;-73
2022/09/01 11:39:54;;;;;;;2.20;0.80;;;23.40;89.50;;;;;;5036241;28;20038;-72
2022/09/01 11:42:26;;;;;;;2.20;0.98;;;23.50;86.70;;;;;;5036417;28;20120;-73
2022/09/01 11:45:20;;;;;;;1.60;0.90;;;23.60;86.50;;;;;;5035435;28;20470;-72
2022/09/01 11:47:49;;;;;;;2.95;0.80;;;23.80;86.60;;;;;;4999749;28;20057;-73
2022/09/01 11:50:25;;;;;;;2.53;0.88;;;23.90;87.10;;;;;;5018228;28;20484;-73
2022/09/01 11:53:03;;;;;;;2.33;0.80;;;23.70;83.90;;;;;;5018271;28;20049;-73
2022/09/01 11:55:50;;;;;;;2.67;0.68;;;23.70;85.40;;;;;;5035726;28;20103;-73
2022/09/01 11:58:27;;;;;;;3.35;1.00;;;23.50;86.90;;;;;;4984656;28;20057;-73
2022/09/01 12:00:56;;;;;;;2.00;0.70;;;23.70;86.80;;;;;;5034138;28;20042;-73
2022/09/01 12:03:24;;;;;;;4.80;0.90;;;23.70;85.70;;;;;;5035063;28;20469;-73
2022/09/01 12:05:58;;;;;;;3.75;0.80;;;23.80;85.80;;;;;;5034894;28;20041;-73
2022/09/01 12:08:26;;;;;;;2.55;0.95;;;23.70;86.10;;;;;;5035667;28;20091;-72
2022/09/01 12:11:09;;;;;;;4.80;0.90;;;23.70;86.80;;;;;;5040668;28;20096;-73
2022/09/01 12:13:36;;;;;;;2.38;0.85;;;23.70;86.10;;;;;;5038087;28;20473;-73
2022/09/01 12:16:05;;;;;;;1.08;0.68;;;23.80;86.60;;;;;;5041358;28;20038;-72
2022/09/01 12:18:39;;;;;;;3.22;0.95;;;23.90;85.00;;;;;;5035177;28;20049;-73
2022/09/01 12:21:09;;;;;;;1.90;0.70;;;23.90;85.50;;;;;;5018003;28;20045;-73
2022/09/01 12:23:42;;;;;;;3.38;0.70;;;23.90;86.30;;;;;;5035153;28;20072;-72
2022/09/01 12:26:25;;;;;;;1.63;0.80;;;23.70;85.60;;;;;;5035809;28;20401;-72
2022/09/01 12:28:52;;;;;;;3.88;1.05;;;23.70;86.30;;;;;;5035200;28;20041;-72
2022/09/01 12:31:22;;;;;;;4.20;0.80;;;23.70;86.50;;;;;;5035174;28;20049;-72
2022/09/01 12:33:48;;;;;;;3.17;0.80;;;23.90;85.70;;;;;;5017426;28;20400;-72
2022/09/01 12:36:27;;;;;;;2.10;0.98;;;23.90;85.10;;;;;;5049085;28;20472;-72
2022/09/01 12:38:54;;;;;;;1.50;0.90;;;23.60;86.20;;;;;;5055304;28;20116;-73
2022/09/01 12:41:32;;;;;;;3.13;0.85;;;23.40;86.80;;;;;;5054961;28;20036;-72
2022/09/01 12:44:28;;;;;;;2.38;0.93;;;23.30;87.00;;;;;;5055052;28;20063;-73
2022/09/01 12:46:54;;;;;;;3.70;0.70;;;23.40;86.20;;;;;;5054841;28;20048;-73
2022/09/01 12:49:33;;;;;;;1.23;0.70;;;23.50;85.70;;;;;;5054871;28;20049;-72
2022/09/01 12:52:18;;;;;;;2.80;0.77;;;23.50;85.70;;;;;;5047851;28;20120;-73
2022/09/01 12:54:45;;;;;;;1.48;0.70;;;23.60;86.70;;;;;;5034785;28;20057;-72
2022/09/01 12:57:26;;;;;;;1.95;0.70;;;23.60;86.30;;;;;;5035064;28;20046;-72
2022/09/01 13:00:04;;;;;;;1.25;0.60;;;23.60;85.80;;;;;;5034858;28;20081;-73
2022/09/01 13:02:36;;;;;;;1.27;0.60;;;23.60;86.60;;;;;;5035176;28;20100;-73
2022/09/01 13:05:30;;;;;;;2.17;0.88;;;23.70;86.60;;;;;;5034837;28;20404;-72
2022/09/01 13:08:05;;;;;;;1.55;0.60;;;24.00;85.50;;;;;;5035228;28;20413;-73
2022/09/01 13:10:42;;;;;;;1.25;0.73;;;24.20;85.60;;;;;;5014983;28;20154;-72
2022/09/01 13:13:09;;;;;;;1.42;0.80;;;24.10;85.20;;;;;;5015194;28;20045;-73
2022/09/01 13:15:37;;;;;;;3.92;1.15;;;24.10;84.70;;;;;;5015053;28;20107;-73